createdAt,value
2023-02-06T00:00:41.745Z,14.13
2023-02-06T00:03:09.450Z,23.23
2023-02-06T00:05:37.343Z,18.80
2023-02-06T00:08:04.942Z,17.75
2023-02-06T00:10:32.252Z,18.85
2023-02-06T00:12:59.598Z,18.92
2023-02-06T00:15:26.913Z,18.23
2023-02-06T00:17:54.251Z,22.55
2023-02-06T00:20:21.468Z,25.75
2023-02-06T00:22:48.661Z,27.25
2023-02-06T00:25:15.918Z,28.40
2023-02-06T00:27:43.283Z,21.10
2023-02-06T00:30:10.676Z,23.58
2023-02-06T00:32:37.977Z,19.70
2023-02-06T00:35:07.324Z,20.92
2023-02-06T00:37:34.613Z,25.58
2023-02-06T00:40:01.944Z,18.50
2023-02-06T00:42:29.164Z,20.25
2023-02-06T00:44:56.432Z,17.65
2023-02-06T00:47:23.729Z,22.73
2023-02-06T00:49:51.146Z,18.33
2023-02-06T00:52:19.816Z,14.07
2023-02-06T00:54:47.241Z,17.25
2023-02-06T00:57:14.787Z,20.80
2023-02-06T00:59:42.134Z,25.20
2023-02-06T01:02:09.314Z,18.13
2023-02-06T01:04:36.561Z,18.50
2023-02-06T01:07:07.027Z,14.50
2023-02-06T01:09:34.594Z,20.50
2023-02-06T01:12:01.854Z,19.58
2023-02-06T01:14:29.175Z,20.30
2023-02-06T01:16:56.709Z,20.88
2023-02-06T01:19:23.888Z,23.67
2023-02-06T01:21:51.160Z,15.38
2023-02-06T01:24:18.463Z,20.38
2023-02-06T01:26:45.661Z,15.90
2023-02-06T01:29:12.964Z,19.27
2023-02-06T01:31:41.166Z,20.35
2023-02-06T01:34:08.581Z,20.52
2023-02-06T01:36:36.419Z,19.30
2023-02-06T01:39:03.810Z,19.17
2023-02-06T01:41:31.358Z,20.50
2023-02-06T01:44:17.799Z,12.73
2023-02-06T01:46:46.477Z,20.40
2023-02-06T01:49:19.229Z,19.83
2023-02-06T01:51:46.741Z,15.20
2023-02-06T01:54:15.113Z,15.63
2023-02-06T01:56:45.753Z,19.05
2023-02-06T02:01:41.127Z,16.33
2023-02-06T02:04:15.119Z,14.52
2023-02-06T02:06:43.077Z,15.93
2023-02-06T02:09:13.568Z,18.77
2023-02-06T02:11:43.416Z,15.05
2023-02-06T02:14:12.448Z,19.25
2023-02-06T02:16:43.332Z,12.00
2023-02-06T02:19:11.017Z,13.55
2023-02-06T02:21:56.488Z,14.55
2023-02-06T02:24:32.894Z,11.73
2023-02-06T02:27:03.144Z,15.27
2023-02-06T02:29:49.134Z,19.00
2023-02-06T02:32:28.505Z,20.63
2023-02-06T02:34:58.816Z,14.80
2023-02-06T02:37:38.421Z,12.88
2023-02-06T02:40:11.505Z,16.10
2023-02-06T02:42:49.873Z,18.52
2023-02-06T02:45:21.036Z,19.88
2023-02-06T02:47:50.389Z,12.55
2023-02-06T02:50:18.977Z,17.77
2023-02-06T02:52:46.521Z,12.02
2023-02-06T02:55:23.908Z,12.88
2023-02-06T02:58:00.587Z,16.95
2023-02-06T03:00:27.835Z,18.27
2023-02-06T03:02:56.446Z,12.02
2023-02-06T03:05:26.470Z,11.40
2023-02-06T03:07:54.268Z,15.70
2023-02-06T03:10:30.857Z,14.48
2023-02-06T03:13:21.356Z,21.17
2023-02-06T03:15:57.666Z,18.70
2023-02-06T03:18:30.978Z,15.55
2023-02-06T03:20:59.573Z,19.38
2023-02-06T03:23:30.007Z,16.40
2023-02-06T03:25:59.220Z,14.85
2023-02-06T03:28:31.451Z,15.30
2023-02-06T03:31:00.250Z,14.05
2023-02-06T03:33:29.510Z,12.23
2023-02-06T03:35:58.112Z,13.50
2023-02-06T03:38:25.909Z,16.48
2023-02-06T03:40:54.603Z,17.42
2023-02-06T03:43:23.630Z,21.75
2023-02-06T03:45:52.950Z,18.23
2023-02-06T03:48:24.621Z,10.25
2023-02-06T03:50:54.295Z,17.92
2023-02-06T03:53:22.668Z,11.55
2023-02-06T03:55:51.332Z,13.35
2023-02-06T03:58:18.732Z,20.60
2023-02-06T04:00:46.909Z,11.35
2023-02-06T04:03:15.347Z,15.05
2023-02-06T04:05:42.849Z,15.02
2023-02-06T04:08:10.524Z,10.52
2023-02-06T04:10:37.665Z,17.92
2023-02-06T04:13:05.155Z,15.88
2023-02-06T04:15:32.439Z,16.02
2023-02-06T04:18:01.481Z,18.75
2023-02-06T04:20:29.664Z,20.20
2023-02-06T04:22:57.221Z,14.38
2023-02-06T04:25:24.401Z,17.15
2023-02-06T04:27:51.829Z,10.85
2023-02-06T04:30:19.350Z,15.95
2023-02-06T04:32:46.579Z,16.08
2023-02-06T04:35:13.814Z,16.13
2023-02-06T04:37:41.693Z,20.17
2023-02-06T04:40:09.084Z,17.08
2023-02-06T04:42:36.267Z,14.70
2023-02-06T04:45:03.417Z,14.93
2023-02-06T04:47:30.739Z,21.05
2023-02-06T04:49:58.092Z,16.58
2023-02-06T04:52:25.516Z,20.35
2023-02-06T04:54:52.844Z,14.60
2023-02-06T04:57:20.626Z,17.77
2023-02-06T04:59:47.990Z,14.77
2023-02-06T05:02:15.408Z,22.08
2023-02-06T05:04:42.634Z,16.35
2023-02-06T05:07:10.062Z,16.08
2023-02-06T05:09:37.366Z,18.45
2023-02-06T05:12:05.200Z,20.02
2023-02-06T05:14:32.352Z,19.08
2023-02-06T05:16:59.540Z,17.98
2023-02-06T05:19:26.760Z,13.38
2023-02-06T05:21:54.159Z,14.77
2023-02-06T05:24:21.679Z,15.02
2023-02-06T05:26:48.837Z,16.80
2023-02-06T05:29:16.002Z,16.70
2023-02-06T05:31:43.512Z,11.13
2023-02-06T05:34:11.178Z,14.55
2023-02-06T05:36:38.844Z,10.13
2023-02-06T05:39:06.385Z,12.02
2023-02-06T05:41:33.657Z,16.02
2023-02-06T05:44:00.980Z,14.05
2023-02-06T05:46:28.506Z,10.77
2023-02-06T05:48:55.779Z,13.07
2023-02-06T05:51:23.262Z,17.17
2023-02-06T05:53:50.551Z,15.00
2023-02-06T05:56:17.697Z,18.67
2023-02-06T05:58:44.941Z,15.77
2023-02-06T06:01:13.226Z,18.00
2023-02-06T06:03:40.724Z,18.88
2023-02-06T06:06:08.386Z,16.90
2023-02-06T06:08:35.755Z,17.23
2023-02-06T06:11:02.985Z,17.33
2023-02-06T06:13:30.217Z,17.48
2023-02-06T06:15:57.645Z,16.50
2023-02-06T06:18:25.193Z,20.05
2023-02-06T06:20:52.585Z,23.85
2023-02-06T06:23:19.803Z,12.57
2023-02-06T06:25:47.733Z,11.93
2023-02-06T06:28:15.718Z,20.33
2023-02-06T06:30:43.232Z,20.58
2023-02-06T06:33:10.655Z,12.93
2023-02-06T06:35:38.378Z,37.83
2023-02-06T06:38:05.616Z,19.00
2023-02-06T06:40:32.842Z,21.83
2023-02-06T06:43:00.354Z,13.10
2023-02-06T06:45:27.824Z,18.45
2023-02-06T06:47:55.095Z,14.82
2023-02-06T06:50:22.324Z,23.67
2023-02-06T06:52:49.653Z,23.88
2023-02-06T06:55:17.397Z,18.23
2023-02-06T06:57:44.777Z,17.17
2023-02-06T07:00:12.854Z,15.68
2023-02-06T07:02:40.254Z,18.70
2023-02-06T07:05:07.840Z,17.27
2023-02-06T07:07:35.177Z,15.90
2023-02-06T07:10:02.705Z,14.85
2023-02-06T07:12:30.122Z,13.07
2023-02-06T07:14:57.253Z,21.20
2023-02-06T07:17:25.519Z,16.35
2023-02-06T07:19:53.157Z,14.25
2023-02-06T07:22:23.125Z,13.68
2023-02-06T07:24:50.411Z,14.15
2023-02-06T07:27:17.886Z,11.18
2023-02-06T07:29:45.124Z,11.77
2023-02-06T07:32:12.296Z,16.58
2023-02-06T07:34:40.936Z,23.50
2023-02-06T07:37:08.284Z,14.45
2023-02-06T07:39:37.652Z,16.17
2023-02-06T07:42:05.473Z,14.82
2023-02-06T07:44:48.888Z,14.02
2023-02-06T07:47:16.078Z,19.42
2023-02-06T07:49:43.357Z,18.30
2023-02-06T07:52:10.676Z,14.43
2023-02-06T07:54:38.036Z,15.88
2023-02-06T07:57:05.184Z,16.38
2023-02-06T07:59:32.527Z,19.60
2023-02-06T08:02:01.122Z,14.18
2023-02-06T08:04:35.035Z,17.58
2023-02-06T08:07:02.841Z,19.95
2023-02-06T08:09:30.121Z,14.80
2023-02-06T08:11:57.390Z,23.67
2023-02-06T08:14:25.239Z,29.15
2023-02-06T08:16:53.038Z,19.23
2023-02-06T08:19:20.756Z,14.63
2023-02-06T08:21:48.181Z,12.00
2023-02-06T08:24:15.380Z,24.05
2023-02-06T08:26:43.947Z,27.80
2023-02-06T08:29:11.482Z,22.58
2023-02-06T08:31:40.400Z,20.50
2023-02-06T08:34:08.838Z,23.23
2023-02-06T08:36:36.135Z,18.73
2023-02-06T08:39:04.358Z,21.92
2023-02-06T08:41:32.839Z,19.42
2023-02-06T08:44:00.979Z,18.08
2023-02-06T08:46:29.270Z,14.50
2023-02-06T08:48:57.210Z,14.23
2023-02-06T08:51:27.891Z,17.63
2023-02-06T08:54:02.685Z,16.85
2023-02-06T08:56:30.494Z,25.10
2023-02-06T08:59:01.059Z,16.75
2023-02-06T09:03:56.285Z,20.58
2023-02-06T09:06:23.737Z,19.17
2023-02-06T09:08:50.918Z,19.58
2023-02-06T09:11:19.332Z,19.98
2023-02-06T09:13:49.093Z,26.98
2023-02-06T09:16:18.151Z,20.17
2023-02-06T09:18:45.537Z,23.13
2023-02-06T09:21:20.060Z,17.70
2023-02-06T09:23:48.540Z,20.05
2023-02-06T09:26:17.529Z,15.48
2023-02-06T09:28:44.731Z,19.35
2023-02-06T09:31:12.045Z,19.75
2023-02-06T09:33:39.755Z,29.55
2023-02-06T09:36:08.507Z,20.17
2023-02-06T09:38:36.314Z,22.48
2023-02-06T09:41:06.357Z,26.55
2023-02-06T09:43:34.636Z,18.90
2023-02-06T09:46:03.050Z,21.48
2023-02-06T09:48:33.460Z,20.75
2023-02-06T09:51:08.861Z,24.52
2023-02-06T09:53:56.304Z,20.80
2023-02-06T09:56:42.271Z,20.00
2023-02-06T09:59:12.682Z,24.00
2023-02-06T10:04:23.330Z,23.33
2023-02-06T10:07:00.004Z,22.75
2023-02-06T10:09:33.535Z,20.55
2023-02-06T10:12:06.993Z,16.83
2023-02-06T10:14:37.258Z,21.38
2023-02-06T10:17:14.781Z,22.95
2023-02-06T10:19:54.025Z,18.00
2023-02-06T10:22:26.939Z,16.92
2023-02-06T10:24:57.388Z,20.05
2023-02-06T10:27:24.734Z,20.00
2023-02-06T10:29:51.900Z,15.15
2023-02-06T10:32:24.573Z,20.38
2023-02-06T10:34:51.867Z,18.20
2023-02-06T10:37:47.773Z,18.90
2023-02-06T10:40:38.627Z,19.20
2023-02-06T10:43:30.774Z,17.13
2023-02-06T10:46:29.623Z,14.30
2023-02-06T10:49:22.814Z,22.60
2023-02-06T10:51:56.468Z,15.02
2023-02-06T10:54:30.395Z,16.55
2023-02-06T10:56:59.778Z,16.27
2023-02-06T10:59:43.070Z,16.30
2023-02-06T11:02:11.860Z,15.45
2023-02-06T11:04:43.894Z,17.42
2023-02-06T11:07:25.201Z,20.85
2023-02-06T11:09:53.112Z,19.58
2023-02-06T11:12:30.496Z,12.43
2023-02-06T11:14:59.448Z,13.27
2023-02-06T11:17:28.471Z,16.42
2023-02-06T11:20:01.642Z,20.75
2023-02-06T11:22:31.227Z,13.05
2023-02-06T11:24:59.315Z,14.35
2023-02-06T11:27:26.787Z,16.77
2023-02-06T11:29:54.093Z,17.60
2023-02-06T11:32:43.882Z,15.75
2023-02-06T11:35:16.687Z,12.93
2023-02-06T11:37:44.011Z,18.83
2023-02-06T11:40:15.881Z,12.88
2023-02-06T11:42:43.264Z,14.90
2023-02-06T11:45:29.290Z,13.55
2023-02-06T11:47:56.718Z,14.57
2023-02-06T11:50:29.968Z,17.15
2023-02-06T11:53:01.537Z,19.10
2023-02-06T11:55:30.666Z,14.55
2023-02-06T11:58:03.851Z,12.45
2023-02-06T12:00:31.076Z,15.68
2023-02-06T12:02:58.488Z,10.32
2023-02-06T12:05:30.941Z,15.68
2023-02-06T12:08:19.780Z,14.88
2023-02-06T12:10:59.763Z,14.35
2023-02-06T12:13:37.885Z,15.80
2023-02-06T12:16:07.707Z,14.35
2023-02-06T12:21:26.951Z,12.48
2023-02-06T12:24:03.584Z,16.13
2023-02-06T12:26:34.669Z,13.98
2023-02-06T12:29:28.054Z,15.45
2023-02-06T12:32:21.744Z,13.02
2023-02-06T12:35:03.852Z,15.32
2023-02-06T12:37:51.270Z,13.23
2023-02-06T12:40:57.039Z,11.10
2023-02-06T12:43:24.349Z,13.98
2023-02-06T12:46:07.565Z,15.50
2023-02-06T12:48:50.769Z,13.00
2023-02-06T12:51:17.976Z,14.68
2023-02-06T12:53:56.848Z,13.65
2023-02-06T12:56:39.046Z,15.77
2023-02-06T12:59:06.274Z,12.38
2023-02-06T13:02:01.393Z,14.65
2023-02-06T13:04:30.413Z,15.52
2023-02-06T13:07:12.043Z,12.15
2023-02-06T13:09:48.045Z,15.75
2023-02-06T13:15:07.205Z,14.35
2023-02-06T13:17:45.441Z,13.50
2023-02-06T13:20:20.546Z,17.48
2023-02-06T13:22:51.131Z,13.70
2023-02-06T13:25:30.245Z,18.15
2023-02-06T13:27:58.632Z,16.70
2023-02-06T13:30:32.068Z,13.43
2023-02-06T13:33:20.174Z,10.75
2023-02-06T13:36:01.073Z,13.32
2023-02-06T13:38:37.093Z,17.77
2023-02-06T13:41:16.409Z,14.70
2023-02-06T13:43:53.502Z,12.50
2023-02-06T13:46:25.670Z,18.00
2023-02-06T13:49:11.987Z,14.73
2023-02-06T13:52:00.666Z,15.35
2023-02-06T13:57:04.055Z,8.65
2023-02-06T13:59:31.608Z,9.98
2023-02-06T14:02:11.893Z,14.98
2023-02-06T14:04:40.463Z,12.55
2023-02-06T14:07:30.981Z,12.65
2023-02-06T14:10:17.723Z,11.23
2023-02-06T14:12:54.256Z,13.88
2023-02-06T14:15:24.587Z,15.32
2023-02-06T14:18:04.538Z,16.13
2023-02-06T14:20:41.341Z,13.85
2023-02-06T14:23:11.685Z,14.38
2023-02-06T14:25:49.033Z,11.98
2023-02-06T14:28:34.964Z,16.45
2023-02-06T14:31:02.524Z,11.15
2023-02-06T14:33:40.956Z,10.02
2023-02-06T14:36:20.583Z,11.63
2023-02-06T14:39:02.757Z,16.17
2023-02-06T14:41:31.901Z,13.82
2023-02-06T14:44:00.472Z,15.80
2023-02-06T14:46:28.118Z,17.35
2023-02-06T14:49:00.131Z,14.65
2023-02-06T14:51:31.473Z,10.95
2023-02-06T14:54:02.974Z,17.17
2023-02-06T14:56:31.754Z,12.23
2023-02-06T14:59:09.365Z,10.20
2023-02-06T15:01:36.763Z,15.52
2023-02-06T15:04:18.108Z,10.90
2023-02-06T15:06:51.637Z,12.05
2023-02-06T15:09:27.966Z,9.90
2023-02-06T15:11:58.224Z,10.52
2023-02-06T15:14:27.830Z,9.75
2023-02-06T15:16:59.815Z,12.23
2023-02-06T15:19:30.434Z,10.30
2023-02-06T15:22:02.467Z,10.55
2023-02-06T15:24:44.718Z,10.82
2023-02-06T15:27:18.256Z,8.90
2023-02-06T15:29:53.030Z,12.43
2023-02-06T15:32:23.703Z,13.55
2023-02-06T15:34:50.891Z,14.23
2023-02-06T15:37:27.304Z,10.25
2023-02-06T15:39:54.805Z,15.55
2023-02-06T15:42:22.999Z,9.90
2023-02-06T15:44:50.917Z,12.63
2023-02-06T15:47:19.112Z,14.55
2023-02-06T15:49:48.488Z,10.45
2023-02-06T15:52:31.507Z,11.35
2023-02-06T15:55:00.108Z,12.23
2023-02-06T15:57:35.642Z,8.82
2023-02-06T16:00:03.569Z,9.75
2023-02-06T16:02:41.547Z,18.35
2023-02-06T16:05:09.945Z,13.18
2023-02-06T16:07:37.357Z,13.63
2023-02-06T16:10:25.968Z,16.95
2023-02-06T16:12:55.197Z,15.95
2023-02-06T16:15:28.624Z,18.23
2023-02-06T16:17:56.431Z,21.83
2023-02-06T16:20:34.298Z,17.98
2023-02-06T16:23:20.843Z,18.30
2023-02-06T16:25:49.676Z,19.50
2023-02-06T16:28:24.414Z,34.38
2023-02-06T16:30:59.401Z,19.70
2023-02-06T16:33:33.119Z,31.58
2023-02-06T16:36:00.321Z,39.28
2023-02-06T16:42:04.340Z,20.65
2023-02-06T16:44:44.844Z,20.42
2023-02-06T16:47:38.312Z,17.50
2023-02-06T16:50:05.902Z,21.95
2023-02-06T16:52:34.422Z,19.95
2023-02-06T16:55:02.325Z,22.35
2023-02-06T16:57:43.565Z,28.23
2023-02-06T17:00:25.172Z,65.90
2023-02-06T17:02:52.892Z,80.88
2023-02-06T17:05:23.777Z,91.22
2023-02-06T17:07:51.342Z,86.90
2023-02-06T17:10:26.452Z,67.78
2023-02-06T17:12:54.191Z,34.50
2023-02-06T17:15:21.539Z,19.15
2023-02-06T17:17:48.784Z,15.32
2023-02-06T17:20:28.766Z,8.38
2023-02-06T17:22:56.076Z,16.75
2023-02-06T17:25:23.297Z,14.43
2023-02-06T17:27:51.290Z,17.27
2023-02-06T17:30:20.725Z,22.58
2023-02-06T17:32:48.384Z,39.95
2023-02-06T17:35:15.885Z,27.05
2023-02-06T17:37:43.354Z,16.40
2023-02-06T17:40:12.683Z,12.52
2023-02-06T17:42:40.053Z,11.88
2023-02-06T17:45:07.524Z,17.48
2023-02-06T17:47:34.946Z,14.00
2023-02-06T17:50:11.046Z,20.90
2023-02-06T17:52:38.458Z,20.15
2023-02-06T17:55:05.768Z,15.40
2023-02-06T17:57:34.881Z,13.38
2023-02-06T18:00:02.268Z,15.23
2023-02-06T18:02:32.328Z,15.38
2023-02-06T18:05:00.097Z,16.63
2023-02-06T18:07:27.775Z,18.15
2023-02-06T18:09:55.191Z,22.63
2023-02-06T18:12:22.531Z,24.70
2023-02-06T18:14:50.095Z,31.70
2023-02-06T18:17:17.936Z,27.13
2023-02-06T18:19:46.538Z,28.05
2023-02-06T18:22:15.501Z,32.70
2023-02-06T18:24:42.829Z,28.98
2023-02-06T18:27:10.580Z,34.97
2023-02-06T18:29:49.390Z,31.38
2023-02-06T18:32:17.333Z,27.05
2023-02-06T18:34:44.758Z,20.98
2023-02-06T18:37:11.994Z,20.48
2023-02-06T18:39:39.492Z,16.25
2023-02-06T18:42:25.224Z,18.33
2023-02-06T18:44:52.361Z,21.90
2023-02-06T18:47:19.867Z,19.13
2023-02-06T18:49:47.131Z,18.40
2023-02-06T18:52:14.732Z,25.77
2023-02-06T18:54:42.435Z,14.63
2023-02-06T18:57:09.613Z,18.40
2023-02-06T18:59:37.299Z,17.67
2023-02-06T19:02:04.664Z,17.85
2023-02-06T19:04:31.956Z,8.93
2023-02-06T19:06:59.692Z,10.30
2023-02-06T19:09:26.896Z,12.82
2023-02-06T19:11:54.307Z,12.80
2023-02-06T19:14:25.372Z,18.85
2023-02-06T19:16:53.128Z,12.98
2023-02-06T19:19:20.516Z,11.90
2023-02-06T19:21:47.993Z,15.63
2023-02-06T19:24:16.068Z,9.07
2023-02-06T19:26:43.313Z,13.32
2023-02-06T19:29:11.911Z,15.75
2023-02-06T19:31:40.877Z,17.05
2023-02-06T19:34:08.185Z,20.05
2023-02-06T19:36:35.487Z,13.55
2023-02-06T19:39:04.564Z,14.23
2023-02-06T19:41:32.829Z,16.50
2023-02-06T19:44:02.720Z,12.05
2023-02-06T19:46:29.858Z,14.07
2023-02-06T19:48:57.153Z,11.88
2023-02-06T19:51:26.355Z,22.73
2023-02-06T19:53:54.338Z,15.32
2023-02-06T19:56:23.366Z,12.35
2023-02-06T19:58:54.962Z,13.27
2023-02-06T20:01:22.514Z,11.68
2023-02-06T20:03:51.861Z,13.00
2023-02-06T20:06:19.541Z,14.55
2023-02-06T20:08:47.259Z,13.23
2023-02-06T20:11:19.253Z,13.93
2023-02-06T20:13:47.206Z,9.98
2023-02-06T20:16:18.941Z,11.07
2023-02-06T20:18:46.557Z,13.02
2023-02-06T20:21:29.369Z,15.65
2023-02-06T20:23:57.673Z,10.20
2023-02-06T20:26:26.619Z,14.05
2023-02-06T20:28:54.241Z,12.65
2023-02-06T20:31:22.128Z,13.40
2023-02-06T20:33:49.495Z,12.68
2023-02-06T20:36:18.497Z,16.88
2023-02-06T20:38:49.586Z,14.57
2023-02-06T20:41:17.013Z,17.88
2023-02-06T20:43:47.825Z,17.60
2023-02-06T20:46:18.469Z,17.08
2023-02-06T20:48:46.483Z,14.82
2023-02-06T20:51:14.497Z,14.02
2023-02-06T20:53:41.910Z,15.82
2023-02-06T20:56:11.214Z,15.88
2023-02-06T20:58:39.120Z,28.10
2023-02-06T21:01:13.281Z,53.65
2023-02-06T21:03:40.561Z,16.00
2023-02-06T21:06:07.851Z,16.30
2023-02-06T21:08:35.086Z,16.92
2023-02-06T21:11:02.414Z,11.85
2023-02-06T21:13:29.724Z,14.35
2023-02-06T21:15:57.881Z,15.65
2023-02-06T21:18:26.677Z,15.25
2023-02-06T21:20:55.224Z,16.27
2023-02-06T21:23:22.721Z,13.43
2023-02-06T21:25:54.041Z,14.43
2023-02-06T21:28:21.679Z,15.70
2023-02-06T21:30:49.718Z,11.75
2023-02-06T21:33:17.633Z,14.82
2023-02-06T21:35:51.723Z,11.77
2023-02-06T21:38:19.614Z,19.42
2023-02-06T21:40:47.114Z,33.30
2023-02-06T21:43:17.274Z,32.40
2023-02-06T21:45:45.315Z,38.55
2023-02-06T21:48:12.695Z,38.28
2023-02-06T21:50:41.009Z,45.72
2023-02-06T21:53:11.836Z,39.70
2023-02-06T21:55:42.965Z,62.58
2023-02-06T21:58:10.802Z,66.50
2023-02-06T22:00:38.054Z,52.15
2023-02-06T22:03:05.295Z,58.42
2023-02-06T22:05:32.629Z,196.93
2023-02-06T22:07:59.801Z,125.50
2023-02-06T22:10:27.181Z,202.80
2023-02-06T22:12:55.270Z,164.13
2023-02-06T22:15:22.469Z,90.75
2023-02-06T22:17:49.748Z,82.15
2023-02-06T22:20:17.054Z,30.98
2023-02-06T22:22:44.265Z,32.78
2023-02-06T22:25:11.877Z,29.83
2023-02-06T22:27:39.263Z,41.17
2023-02-06T22:30:07.710Z,24.35
2023-02-06T22:32:38.735Z,22.20
2023-02-06T22:35:06.767Z,19.73
2023-02-06T22:37:34.534Z,24.88
2023-02-06T22:40:01.839Z,22.52
2023-02-06T22:42:29.081Z,28.20
2023-02-06T22:44:56.379Z,18.38
2023-02-06T22:47:23.674Z,15.95
2023-02-06T22:49:52.617Z,17.33
2023-02-06T22:52:38.956Z,16.52
2023-02-06T22:55:06.497Z,20.23
2023-02-06T22:57:35.320Z,14.80
2023-02-06T23:00:02.653Z,17.75
2023-02-06T23:02:29.797Z,16.50
2023-02-06T23:04:57.275Z,15.25
2023-02-06T23:07:24.512Z,20.65
2023-02-06T23:09:51.714Z,19.58
2023-02-06T23:12:19.051Z,19.60
2023-02-06T23:14:46.299Z,18.50
2023-02-06T23:17:13.668Z,20.27
2023-02-06T23:19:40.849Z,17.90
2023-02-06T23:22:10.611Z,20.10
2023-02-06T23:24:37.865Z,15.93
2023-02-06T23:27:05.098Z,18.85
2023-02-06T23:29:32.330Z,17.92
2023-02-06T23:31:59.523Z,18.17
2023-02-06T23:34:26.680Z,24.42
2023-02-06T23:36:53.960Z,18.52
2023-02-06T23:39:21.417Z,19.58
2023-02-06T23:41:48.705Z,17.98
2023-02-06T23:44:15.942Z,14.48
2023-02-06T23:46:43.496Z,17.42
2023-02-06T23:49:11.351Z,18.05
2023-02-06T23:51:39.088Z,15.90
2023-02-06T23:54:07.411Z,17.88
2023-02-06T23:56:34.812Z,17.02
2023-02-06T23:59:02.721Z,24.30
